Annette Island, AK

11:00 AM AKDT on July 28, 2016 (GMT -0800)
Annette Island | | Change Station

Elev 112 ft 55.04 °N, 131.57 °W | Updated 7 minutes ago

Overcast
Overcast
61 °F
Feels Like 61 °F
N
4
Wind Variable Wind from SSE

Today
High -- | Low -- °F
--% Chance of Precip.
Yesterday
High -- | Low -- °F
Precip. -- in
Pressure 30.25 in
Visibility 10.0 miles
Clouds Overcast 400 ft
Dew Point 59 °F
Humidity 93%
Rainfall 0.23 in
Snow Depth Not available.
4:49 AM 8:55 PM
Waning Crescent, 29% visible
METAR PANT 281853Z 16003KT 10SM OVC004 16/15 A3024 RMK AO2 SLP242 T01610150
Pressure 30.25 in
Visibility 10.0 miles
Clouds Overcast 400 ft
Dew Point 59 °F
Humidity 93%
Rainfall 0.23 in
Snow Depth Not available.
4:49 AM 8:55 PM
Waning Crescent, 29% visible
METAR PANT 281853Z 16003KT 10SM OVC004 16/15 A3024 RMK AO2 SLP242 T01610150

10-Day Weather Forecast

Almanac

Astronomy

Jul. 28, 2016 Rise Set
Actual Time
Civil Twilight
Nautical Twilight
Astronomical Twilight
Moon
Length of Visible Light
Length of Day
Tomorrow will be .
, % of the Moon is Illuminated

Today's Extremes

State Highs State Lows

Community

WunderPhotos

Upload Photos

1,928,174 photos uploaded!

WunderBlog® & News

Nearby

Air Quality

  Air Quality AQ Index Pollutant
Not available.

Snow Depth

Station Depth Elevation

Earthquake Activity

City Distance Mag. Time & Date
Minimum magnitude displayed is 2.5.

Coastal Water Temperatures

Place Temperature

Stations

Nearby Weather Stations

Station Location Temp. Windchill Dew Point Humidity Wind Precip. Elev Updated Type
                   

Watches & Warnings

There are currently no watches in effect.